Time;durP1;ratioP1;P1;durP2;ratioP2;P2;SDS_P1;SDS_P2;PMS_P1;PMS_P2;Temp;Humidity;BMP_temperature;BMP_pressure;BME280_temperature;BME280_humidity;BME280_pressure;Samples;Min_cycle;Max_cycle;Signal;HPM_P1;HPM_P2
2021/05/27 00:00:28;;;;;;;3.10;2.90;;;8.40;99.90;;;;;;5020314;28;20307;-74
2021/05/27 00:02:54;;;;;;;2.67;2.27;;;8.30;99.90;;;;;;5011120;28;20228;-73
2021/05/27 00:05:21;;;;;;;7.20;2.53;;;8.40;99.90;;;;;;5025723;28;20195;-73
2021/05/27 00:07:47;;;;;;;3.00;2.57;;;8.30;99.90;;;;;;5027287;28;20254;-74
2021/05/27 00:10:15;;;;;;;4.57;2.50;;;8.40;99.90;;;;;;5011862;28;20226;-74
2021/05/27 00:12:41;;;;;;;2.67;2.50;;;8.30;99.90;;;;;;5023948;28;20699;-73
2021/05/27 00:15:08;;;;;;;2.83;2.30;;;8.30;99.90;;;;;;5025346;28;20199;-72
2021/05/27 00:17:34;;;;;;;2.50;2.40;;;8.30;99.90;;;;;;5030166;28;20184;-73
2021/05/27 00:20:00;;;;;;;2.57;2.37;;;8.30;99.90;;;;;;5018800;28;20212;-73
2021/05/27 00:22:25;;;;;;;3.77;3.17;;;8.30;99.90;;;;;;5027230;28;20228;-74
2021/05/27 00:24:51;;;;;;;2.43;2.23;;;8.30;99.90;;;;;;5023436;28;20206;-72
2021/05/27 00:27:17;;;;;;;4.03;2.80;;;8.30;99.90;;;;;;5022756;28;20194;-73
2021/05/27 00:29:42;;;;;;;2.40;2.20;;;8.30;99.90;;;;;;5007345;28;20696;-74
2021/05/27 00:32:08;;;;;;;3.67;2.70;;;8.30;99.90;;;;;;5021322;28;20287;-74
2021/05/27 00:34:34;;;;;;;2.70;2.40;;;8.30;99.90;;;;;;5025489;28;20183;-73
2021/05/27 00:36:59;;;;;;;5.67;2.57;;;8.30;99.90;;;;;;5025315;28;20195;-73
2021/05/27 00:39:25;;;;;;;2.40;2.23;;;8.30;99.90;;;;;;5025262;28;20208;-73
2021/05/27 00:41:51;;;;;;;4.60;2.43;;;8.30;99.90;;;;;;5025389;28;20211;-73
2021/05/27 00:44:30;;;;;;;2.73;2.60;;;8.30;99.90;;;;;;5024253;28;20242;-73
2021/05/27 00:46:59;;;;;;;2.67;2.50;;;8.20;99.90;;;;;;5024699;28;20184;-73
2021/05/27 00:49:24;;;;;;;2.80;2.60;;;8.20;99.90;;;;;;5029477;28;20188;-73
2021/05/27 00:51:50;;;;;;;3.57;2.40;;;8.20;99.90;;;;;;5021994;28;20207;-73
2021/05/27 00:54:18;;;;;;;5.50;2.60;;;8.20;99.90;;;;;;5023206;28;20287;-73
2021/05/27 00:56:45;;;;;;;4.23;2.50;;;8.20;99.90;;;;;;5024828;28;20671;-73
2021/05/27 00:59:11;;;;;;;2.93;2.63;;;8.20;99.90;;;;;;5024694;28;20207;-73
2021/05/27 01:01:37;;;;;;;2.43;2.23;;;8.20;99.90;;;;;;5004897;28;20572;-73
2021/05/27 01:04:04;;;;;;;3.10;2.90;;;8.20;99.90;;;;;;5007699;28;20632;-73
2021/05/27 01:06:29;;;;;;;3.17;2.70;;;8.20;99.90;;;;;;5023087;28;20647;-73
2021/05/27 01:08:55;;;;;;;2.93;2.73;;;8.20;99.90;;;;;;5015463;28;20208;-73
2021/05/27 01:11:22;;;;;;;2.47;2.27;;;8.20;99.90;;;;;;5028185;28;20208;-73
2021/05/27 01:13:49;;;;;;;2.97;2.57;;;8.20;99.90;;;;;;5024838;28;20531;-72
2021/05/27 01:16:17;;;;;;;3.37;3.10;;;8.20;99.90;;;;;;5021468;28;20185;-73
2021/05/27 01:18:43;;;;;;;2.67;2.47;;;8.20;99.90;;;;;;5025331;28;20195;-73
2021/05/27 01:21:09;;;;;;;2.80;2.60;;;8.20;99.90;;;;;;5022479;28;20292;-73
2021/05/27 01:23:36;;;;;;;3.10;2.80;;;8.20;99.90;;;;;;5025282;28;20192;-73
2021/05/27 01:26:04;;;;;;;3.63;2.77;;;8.20;99.90;;;;;;5024940;28;20195;-73
2021/05/27 01:28:33;;;;;;;2.50;2.30;;;8.20;99.90;;;;;;5024108;28;20241;-73
2021/05/27 01:31:00;;;;;;;3.97;2.50;;;8.20;99.90;;;;;;5022067;28;20577;-73
2021/05/27 01:33:26;;;;;;;2.87;2.67;;;8.20;99.90;;;;;;5010512;28;20191;-73
2021/05/27 01:35:54;;;;;;;2.90;2.70;;;8.20;99.90;;;;;;5009529;28;20564;-74
2021/05/27 01:38:22;;;;;;;3.20;2.20;;;8.20;99.90;;;;;;5028612;28;20200;-73
2021/05/27 01:40:49;;;;;;;2.70;2.50;;;8.20;99.90;;;;;;5023643;28;20603;-74
2021/05/27 01:43:15;;;;;;;3.03;2.50;;;8.20;99.90;;;;;;5023159;28;20733;-73
2021/05/27 01:45:41;;;;;;;2.80;2.60;;;8.20;99.90;;;;;;5026309;28;20557;-75
2021/05/27 01:48:07;;;;;;;2.90;2.70;;;8.20;99.90;;;;;;5026569;28;20184;-73
2021/05/27 01:50:33;;;;;;;3.93;2.90;;;8.20;99.90;;;;;;5027948;28;20221;-73
2021/05/27 01:53:01;;;;;;;3.07;2.87;;;8.20;99.90;;;;;;5025690;28;20551;-73
2021/05/27 01:55:28;;;;;;;2.90;2.70;;;8.10;99.90;;;;;;5030075;28;20192;-73
2021/05/27 01:57:55;;;;;;;3.60;2.67;;;8.20;99.90;;;;;;5026863;28;20191;-73
2021/05/27 02:00:21;;;;;;;2.90;2.70;;;8.10;99.90;;;;;;5030627;28;20205;-73
2021/05/27 02:02:46;;;;;;;3.43;2.80;;;8.20;99.90;;;;;;5015508;28;20773;-73
2021/05/27 02:05:13;;;;;;;4.63;2.60;;;8.20;99.90;;;;;;5027096;28;20267;-73
2021/05/27 02:07:39;;;;;;;3.27;2.97;;;8.20;99.90;;;;;;5027402;28;20224;-73
2021/05/27 02:10:06;;;;;;;3.10;2.90;;;8.20;99.90;;;;;;5032219;28;20851;-73
2021/05/27 02:12:32;;;;;;;3.77;3.17;;;8.10;99.90;;;;;;5014651;28;20212;-74
2021/05/27 02:14:57;;;;;;;3.70;2.90;;;8.10;99.90;;;;;;5028458;28;20567;-73
2021/05/27 02:17:23;;;;;;;3.40;3.20;;;8.10;99.90;;;;;;5026673;28;20210;-73
2021/05/27 02:19:49;;;;;;;3.37;3.17;;;8.10;99.90;;;;;;5024745;28;20232;-73
2021/05/27 02:22:14;;;;;;;3.50;3.20;;;8.10;99.90;;;;;;5024285;28;20204;-73
2021/05/27 02:24:40;;;;;;;3.37;3.07;;;8.10;99.90;;;;;;5028413;28;20271;-73
2021/05/27 02:27:06;;;;;;;3.40;3.10;;;8.10;99.90;;;;;;5013979;28;20291;-73
2021/05/27 02:29:32;;;;;;;4.13;3.50;;;8.10;99.90;;;;;;5014169;28;20184;-76
2021/05/27 02:31:57;;;;;;;4.07;3.20;;;8.10;99.90;;;;;;5032430;28;20208;-73
2021/05/27 02:34:23;;;;;;;3.00;2.80;;;8.10;99.90;;;;;;5040208;28;20181;-73
2021/05/27 02:36:49;;;;;;;3.57;3.27;;;8.10;99.90;;;;;;5023167;28;20192;-73
2021/05/27 02:39:15;;;;;;;3.17;2.97;;;8.10;99.90;;;;;;5028266;28;20216;-73
2021/05/27 02:41:41;;;;;;;3.50;3.20;;;8.10;99.90;;;;;;5011138;28;20200;-73
2021/05/27 02:44:07;;;;;;;3.47;3.17;;;8.20;99.90;;;;;;5022087;28;20193;-73
2021/05/27 02:46:32;;;;;;;3.20;3.00;;;8.10;99.90;;;;;;5012467;28;20189;-73
2021/05/27 02:48:58;;;;;;;4.17;3.40;;;8.10;99.90;;;;;;5010975;28;20194;-74
2021/05/27 02:51:23;;;;;;;3.47;3.20;;;8.10;99.90;;;;;;5029802;28;20683;-73
2021/05/27 02:53:49;;;;;;;3.40;3.07;;;8.10;99.90;;;;;;5025833;28;20215;-73
2021/05/27 02:56:15;;;;;;;3.20;2.90;;;8.20;99.90;;;;;;5028502;28;20569;-73
2021/05/27 02:58:40;;;;;;;3.47;3.20;;;8.20;99.90;;;;;;5029423;28;20207;-73
2021/05/27 03:01:06;;;;;;;4.53;3.20;;;8.20;99.90;;;;;;5023462;28;20212;-73
2021/05/27 03:03:32;;;;;;;3.20;2.80;;;8.20;99.90;;;;;;5048829;28;20177;-74
2021/05/27 03:06:00;;;;;;;3.40;3.20;;;8.20;99.90;;;;;;5047272;28;20185;-73
2021/05/27 03:08:27;;;;;;;3.30;3.10;;;8.20;99.90;;;;;;5015056;28;20197;-72
2021/05/27 03:10:53;;;;;;;3.40;3.10;;;8.20;99.90;;;;;;5027882;28;20596;-73
2021/05/27 03:13:19;;;;;;;4.13;3.23;;;8.20;99.90;;;;;;5027037;28;20271;-73
2021/05/27 03:15:44;;;;;;;3.80;3.43;;;8.20;99.90;;;;;;5012480;28;20275;-73
2021/05/27 03:18:11;;;;;;;3.60;3.17;;;8.20;99.90;;;;;;5010624;28;20567;-73
2021/05/27 03:20:36;;;;;;;3.60;3.30;;;8.20;99.90;;;;;;5000631;28;20184;-73
2021/05/27 03:23:03;;;;;;;3.90;3.17;;;8.20;99.90;;;;;;5011428;28;20199;-73
2021/05/27 03:25:29;;;;;;;4.57;3.13;;;8.20;99.90;;;;;;5024806;28;20220;-73
2021/05/27 03:27:55;;;;;;;3.30;3.03;;;8.20;99.90;;;;;;5027816;28;20208;-73
2021/05/27 03:30:22;;;;;;;5.50;3.07;;;8.10;99.90;;;;;;5028791;28;20189;-73
2021/05/27 03:32:48;;;;;;;3.73;3.37;;;8.10;99.90;;;;;;5010463;28;20212;-72
2021/05/27 03:35:14;;;;;;;5.10;3.30;;;8.10;99.90;;;;;;5010586;28;20674;-72
2021/05/27 03:37:40;;;;;;;3.43;3.13;;;8.10;99.90;;;;;;5027900;28;20192;-73
2021/05/27 03:40:14;;;;;;;3.00;2.80;;;8.10;99.90;;;;;;5019002;28;20221;-73
2021/05/27 03:42:58;;;;;;;3.47;3.10;;;8.10;99.90;;;;;;5025039;28;20761;-73
2021/05/27 03:45:28;;;;;;;3.30;3.00;;;8.10;99.90;;;;;;5025686;28;20193;-73
2021/05/27 03:47:55;;;;;;;4.33;3.23;;;8.10;99.90;;;;;;5023157;28;20594;-73
2021/05/27 03:50:23;;;;;;;3.63;3.27;;;8.10;99.90;;;;;;5018295;28;20397;-73
2021/05/27 03:52:50;;;;;;;3.63;3.07;;;8.10;99.90;;;;;;5007221;28;20292;-73
2021/05/27 03:55:17;;;;;;;3.30;3.10;;;8.10;99.90;;;;;;5027782;28;20188;-73
2021/05/27 03:57:47;;;;;;;3.60;3.30;;;8.10;99.90;;;;;;5025306;28;20223;-73
2021/05/27 04:03:02;;;;;;;3.57;3.13;;;8.10;99.90;;;;;;5029200;28;20222;-73
2021/05/27 04:08:14;;;;;;;3.30;3.00;;;8.10;99.90;;;;;;5024619;28;20254;-73
2021/05/27 04:10:40;;;;;;;3.30;2.97;;;8.10;99.90;;;;;;5014297;28;20192;-73
2021/05/27 04:13:05;;;;;;;3.27;3.03;;;8.10;99.90;;;;;;5028482;28;20235;-72
2021/05/27 04:15:33;;;;;;;3.43;3.10;;;8.10;99.90;;;;;;5028499;28;21691;-75
2021/05/27 04:18:16;;;;;;;3.57;3.30;;;8.20;99.90;;;;;;5025049;28;20721;-73
2021/05/27 04:20:47;;;;;;;3.30;3.03;;;8.10;99.90;;;;;;5024018;28;20211;-72
2021/05/27 04:23:15;;;;;;;3.60;3.23;;;8.20;99.90;;;;;;5029043;28;20697;-73
2021/05/27 04:25:42;;;;;;;3.40;3.10;;;8.20;99.90;;;;;;5024915;28;20184;-73
2021/05/27 04:28:08;;;;;;;3.50;2.87;;;8.20;99.90;;;;;;5025208;28;20188;-73
2021/05/27 04:33:19;;;;;;;4.07;3.57;;;8.10;99.90;;;;;;5027370;28;20214;-73
2021/05/27 04:35:45;;;;;;;4.23;3.03;;;8.10;99.90;;;;;;5024649;28;20192;-73
2021/05/27 04:38:16;;;;;;;4.63;3.37;;;8.10;99.90;;;;;;5010387;28;20188;-73
2021/05/27 04:40:46;;;;;;;3.50;3.20;;;8.10;99.90;;;;;;5026377;28;20215;-74
2021/05/27 04:43:14;;;;;;;5.13;3.40;;;8.10;99.90;;;;;;5025812;28;20188;-74
2021/05/27 04:45:40;;;;;;;5.40;2.77;;;8.10;99.90;;;;;;5023875;28;20188;-75
2021/05/27 04:48:09;;;;;;;3.50;3.20;;;8.20;99.90;;;;;;5025245;28;21146;-74
2021/05/27 04:50:37;;;;;;;3.00;2.80;;;8.20;99.90;;;;;;5028202;28;20176;-75
2021/05/27 04:53:04;;;;;;;3.43;3.00;;;8.30;99.90;;;;;;5006736;28;20196;-75
2021/05/27 04:55:31;;;;;;;5.43;2.90;;;8.40;99.90;;;;;;5030329;28;20185;-75
2021/05/27 04:57:57;;;;;;;3.00;2.80;;;8.40;99.90;;;;;;5014510;28;20188;-73
2021/05/27 05:00:24;;;;;;;3.33;3.03;;;8.50;99.90;;;;;;5013097;28;20234;-74
2021/05/27 05:02:52;;;;;;;3.00;2.80;;;8.60;99.90;;;;;;5000272;28;20299;-74
2021/05/27 05:05:18;;;;;;;3.60;2.77;;;8.60;99.90;;;;;;5007814;28;20197;-74
2021/05/27 05:07:44;;;;;;;2.87;2.67;;;8.60;99.90;;;;;;5022417;28;20658;-74
2021/05/27 05:10:11;;;;;;;3.17;2.57;;;8.70;99.90;;;;;;5007680;28;20250;-75
2021/05/27 05:12:47;;;;;;;2.87;2.67;;;8.70;99.90;;;;;;5026392;28;21905;-75
2021/05/27 05:15:25;;;;;;;3.77;2.83;;;8.80;99.90;;;;;;5022824;28;20355;-74
2021/05/27 05:18:09;;;;;;;4.63;2.90;;;8.90;99.90;;;;;;5013010;28;20200;-74
2021/05/27 05:20:39;;;;;;;3.33;2.80;;;8.90;99.90;;;;;;5023047;28;20683;-75
2021/05/27 05:23:06;;;;;;;2.83;2.63;;;9.00;99.90;;;;;;5040745;28;20216;-74
2021/05/27 05:25:33;;;;;;;4.33;2.70;;;9.00;99.90;;;;;;5046557;28;20234;-74
2021/05/27 05:28:00;;;;;;;4.23;2.90;;;9.00;99.90;;;;;;5042592;28;20189;-75
2021/05/27 05:30:27;;;;;;;3.00;2.80;;;9.10;99.90;;;;;;5022463;28;20664;-74
2021/05/27 05:32:53;;;;;;;4.70;3.13;;;9.10;99.90;;;;;;5027245;28;20318;-74
2021/05/27 05:35:19;;;;;;;2.70;2.50;;;9.10;99.90;;;;;;5031474;28;20192;-74
2021/05/27 05:37:47;;;;;;;2.70;2.50;;;9.20;99.90;;;;;;5027322;28;20180;-74
2021/05/27 05:40:14;;;;;;;3.43;2.70;;;9.30;99.90;;;;;;5030447;28;20236;-74
2021/05/27 05:42:41;;;;;;;2.77;2.47;;;9.30;99.90;;;;;;5028681;28;20215;-74
2021/05/27 05:45:08;;;;;;;2.93;2.73;;;9.40;99.90;;;;;;5025901;28;20188;-74
2021/05/27 05:47:34;;;;;;;2.93;2.67;;;9.40;99.90;;;;;;5030537;28;20176;-74
2021/05/27 05:50:02;;;;;;;4.53;3.20;;;9.40;99.90;;;;;;5026951;28;20233;-73
2021/05/27 05:52:28;;;;;;;3.60;2.33;;;9.40;99.90;;;;;;5012045;28;21003;-74
2021/05/27 05:54:53;;;;;;;3.50;2.63;;;9.50;99.90;;;;;;5025809;28;20243;-72
2021/05/27 05:57:20;;;;;;;4.07;2.47;;;9.50;99.90;;;;;;5028727;28;20192;-74
2021/05/27 05:59:45;;;;;;;3.00;2.80;;;9.60;99.90;;;;;;5013833;28;20339;-71
2021/05/27 06:02:11;;;;;;;2.90;2.40;;;9.70;99.90;;;;;;5027162;28;20345;-72
2021/05/27 06:04:37;;;;;;;2.40;2.20;;;10.60;99.90;;;;;;5031871;28;20202;-72
2021/05/27 06:07:03;;;;;;;3.80;2.60;;;12.60;99.90;;;;;;5015498;28;20180;-72
2021/05/27 06:09:28;;;;;;;2.30;2.10;;;13.30;99.90;;;;;;5024317;28;20195;-73
2021/05/27 06:11:54;;;;;;;4.45;1.88;;;13.00;99.90;;;;;;5026081;28;20211;-73
2021/05/27 06:14:20;;;;;;;2.30;1.90;;;13.90;99.90;;;;;;5033267;28;20184;-74
2021/05/27 06:16:47;;;;;;;2.58;1.80;;;15.00;99.90;;;;;;5025895;28;20188;-74
2021/05/27 06:19:12;;;;;;;4.07;2.10;;;15.60;99.90;;;;;;5026727;28;20216;-72
2021/05/27 06:21:38;;;;;;;1.77;1.67;;;16.00;99.90;;;;;;5023178;28;20208;-74
2021/05/27 06:24:05;;;;;;;2.15;1.90;;;16.20;99.90;;;;;;5028065;28;20196;-74
2021/05/27 06:26:31;;;;;;;3.30;1.90;;;16.00;99.90;;;;;;5015211;28;20192;-73
2021/05/27 06:28:57;;;;;;;1.65;1.55;;;15.90;99.90;;;;;;5028074;28;20214;-75
2021/05/27 06:31:23;;;;;;;2.72;1.67;;;15.50;99.90;;;;;;5026382;28;20683;-74
2021/05/27 06:33:49;;;;;;;3.42;1.80;;;15.30;99.90;;;;;;5030038;28;20184;-74
2021/05/27 06:36:15;;;;;;;1.80;1.70;;;14.90;99.90;;;;;;5029752;28;20176;-73
2021/05/27 06:38:41;;;;;;;2.53;1.75;;;14.30;99.90;;;;;;5029212;28;20204;-74
2021/05/27 06:41:07;;;;;;;4.18;1.95;;;14.20;99.90;;;;;;5023780;28;20204;-74
2021/05/27 06:43:33;;;;;;;1.40;1.30;;;14.00;99.90;;;;;;5023873;28;20192;-74
2021/05/27 06:45:59;;;;;;;1.40;1.30;;;14.10;99.90;;;;;;5028862;28;20547;-75
2021/05/27 06:48:25;;;;;;;2.65;1.55;;;14.40;99.90;;;;;;5022056;28;20185;-75
2021/05/27 06:50:50;;;;;;;4.00;1.40;;;14.60;99.90;;;;;;5008668;28;20687;-74
2021/05/27 06:53:16;;;;;;;3.10;1.50;;;14.90;99.90;;;;;;5028509;28;20188;-74
2021/05/27 06:55:43;;;;;;;2.25;1.45;;;15.00;99.90;;;;;;5025067;28;20184;-74
2021/05/27 06:58:10;;;;;;;4.50;1.80;;;14.70;99.90;;;;;;5006006;28;20215;-74
2021/05/27 07:00:36;;;;;;;1.70;1.60;;;14.30;99.90;;;;;;5026616;28;20291;-75
2021/05/27 07:03:06;;;;;;;2.67;1.50;;;14.00;99.90;;;;;;5010458;28;20275;-75
2021/05/27 07:05:33;;;;;;;2.10;1.70;;;13.30;99.90;;;;;;5012264;28;20219;-75
2021/05/27 07:08:01;;;;;;;9.05;1.98;;;12.90;99.90;;;;;;5025663;28;20280;-75
2021/05/27 07:10:29;;;;;;;2.40;1.77;;;12.80;99.90;;;;;;5028718;28;20222;-75
2021/05/27 07:12:58;;;;;;;4.25;1.80;;;12.70;99.90;;;;;;5027223;28;20266;-76
2021/05/27 07:15:27;;;;;;;4.82;1.90;;;13.00;99.90;;;;;;5028146;28;20682;-75
2021/05/27 07:17:53;;;;;;;2.33;1.70;;;13.10;99.90;;;;;;5024855;28;20538;-74
2021/05/27 07:20:21;;;;;;;7.53;2.13;;;13.30;99.90;;;;;;5013878;28;20204;-75
2021/05/27 07:22:48;;;;;;;4.20;1.88;;;13.60;99.90;;;;;;5005918;28;20262;-75
2021/05/27 07:25:14;;;;;;;2.72;1.85;;;13.90;99.90;;;;;;5027011;28;20561;-75
2021/05/27 07:27:39;;;;;;;4.18;1.55;;;14.20;99.90;;;;;;5025352;28;20689;-75
2021/05/27 07:30:07;;;;;;;1.95;1.60;;;14.70;99.90;;;;;;5023359;28;20261;-75
2021/05/27 07:32:33;;;;;;;1.85;1.50;;;15.30;99.90;;;;;;5008227;28;20215;-76
2021/05/27 07:34:59;;;;;;;1.92;1.40;;;15.20;99.90;;;;;;5027012;28;20192;-74
2021/05/27 07:37:24;;;;;;;3.25;1.42;;;15.20;99.90;;;;;;5012100;28;20198;-75
2021/05/27 07:39:50;;;;;;;3.20;1.52;;;15.10;99.90;;;;;;5026634;28;20212;-76
2021/05/27 07:42:17;;;;;;;2.55;1.25;;;14.90;99.90;;;;;;5026209;28;20200;-72
2021/05/27 07:44:43;;;;;;;1.60;1.50;;;14.80;99.90;;;;;;5021945;28;20681;-73
2021/05/27 07:47:08;;;;;;;1.83;1.33;;;14.50;99.90;;;;;;5024624;28;20187;-73
2021/05/27 07:49:34;;;;;;;2.42;1.60;;;14.30;99.90;;;;;;5026110;28;20180;-75
2021/05/27 07:52:00;;;;;;;1.60;1.40;;;14.20;99.90;;;;;;5021487;28;20231;-75
2021/05/27 07:54:27;;;;;;;2.45;1.58;;;14.20;99.90;;;;;;5012957;28;20277;-75
2021/05/27 07:56:53;;;;;;;2.38;2.10;;;14.20;99.90;;;;;;5010156;28;20187;-75
2021/05/27 07:59:19;;;;;;;1.75;1.65;;;13.90;99.90;;;;;;5005160;28;20287;-75
2021/05/27 08:01:45;;;;;;;2.60;1.80;;;13.60;99.90;;;;;;5025761;28;20204;-73
2021/05/27 08:04:11;;;;;;;2.97;1.67;;;13.50;99.90;;;;;;5028416;28;20287;-73
2021/05/27 08:06:37;;;;;;;3.70;1.63;;;13.70;99.90;;;;;;5023233;28;20699;-74
2021/05/27 08:09:06;;;;;;;3.95;1.73;;;13.90;99.90;;;;;;5022962;28;20726;-74
2021/05/27 08:11:33;;;;;;;2.30;1.63;;;14.40;99.90;;;;;;5023118;28;20307;-74
2021/05/27 08:13:59;;;;;;;2.35;1.42;;;15.20;99.90;;;;;;5009628;28;20234;-74
2021/05/27 08:16:24;;;;;;;2.72;1.30;;;15.90;99.90;;;;;;5020403;28;20196;-74
2021/05/27 08:18:50;;;;;;;3.13;1.50;;;16.40;99.90;;;;;;5022385;28;20215;-76
2021/05/27 08:21:17;;;;;;;1.48;1.17;;;16.60;99.90;;;;;;5025830;28;20212;-77
2021/05/27 08:23:44;;;;;;;2.10;1.13;;;17.30;99.90;;;;;;5027165;28;20938;-75
2021/05/27 08:26:10;;;;;;;4.22;3.28;;;;;;;;;;5008701;28;20216;-75
2021/05/27 08:28:36;;;;;;;2.13;1.20;;;;;;;;;;5023853;28;20181;-74
2021/05/27 08:31:02;;;;;;;1.42;1.15;;;18.00;99.90;;;;;;5015418;28;20200;-75
2021/05/27 08:33:27;;;;;;;4.13;1.25;;;17.60;96.60;;;;;;5021332;28;20536;-73
2021/05/27 08:35:53;;;;;;;1.63;1.48;;;17.30;96.60;;;;;;5008254;28;20203;-75
2021/05/27 08:38:19;;;;;;;3.05;1.20;;;;;;;;;;5007609;28;20583;-74
2021/05/27 08:40:44;;;;;;;2.33;1.25;;;17.40;95.30;;;;;;5023490;28;20274;-75
2021/05/27 08:43:12;;;;;;;3.03;1.10;;;18.40;94.30;;;;;;5019284;28;20294;-75
2021/05/27 08:45:41;;;;;;;3.58;1.58;;;18.40;92.80;;;;;;5009983;28;20267;-75
2021/05/27 08:48:09;;;;;;;3.00;1.40;;;18.30;93.50;;;;;;5020390;28;20193;-77
2021/05/27 08:50:40;;;;;;;3.53;1.13;;;17.80;92.60;;;;;;5023473;28;20188;-74
2021/05/27 08:53:06;;;;;;;2.03;1.42;;;17.10;92.90;;;;;;5024501;28;20188;-76
2021/05/27 08:55:32;;;;;;;3.08;1.40;;;16.70;93.50;;;;;;5027476;28;20188;-76
2021/05/27 08:57:59;;;;;;;2.60;1.02;;;17.10;96.00;;;;;;5024822;28;20180;-76
2021/05/27 09:00:24;;;;;;;2.05;1.35;;;18.30;94.40;;;;;;5026918;28;20281;-76
2021/05/27 09:03:02;;;;;;;3.35;1.50;;;18.70;94.10;;;;;;5006228;28;20208;-76
2021/05/27 09:05:31;;;;;;;6.05;1.25;;;19.10;91.90;;;;;;5010618;28;20667;-76
2021/05/27 09:07:56;;;;;;;2.58;1.40;;;18.50;91.30;;;;;;5026527;28;20184;-76
2021/05/27 09:10:41;;;;;;;1.95;1.30;;;18.10;91.10;;;;;;5025972;28;20433;-76
2021/05/27 09:13:17;;;;;;;3.22;1.30;;;17.80;91.30;;;;;;5027230;28;20245;-76
2021/05/27 09:15:43;;;;;;;3.42;1.25;;;17.70;91.30;;;;;;5022534;28;20183;-76
2021/05/27 09:18:09;;;;;;;2.10;1.35;;;18.00;90.90;;;;;;5025374;28;20647;-75
2021/05/27 09:20:35;;;;;;;5.47;1.55;;;18.50;90.50;;;;;;5022014;28;20232;-74
2021/05/27 09:23:09;;;;;;;3.40;1.13;;;18.80;87.10;;;;;;5007530;28;20687;-76
2021/05/27 09:25:36;;;;;;;1.30;1.00;;;18.90;88.70;;;;;;5023315;28;20188;-77
2021/05/27 09:28:02;;;;;;;1.65;1.10;;;18.30;85.60;;;;;;5010229;28;20185;-76
2021/05/27 09:30:28;;;;;;;3.72;2.28;;;17.80;84.90;;;;;;5011463;28;20196;-76
2021/05/27 09:32:54;;;;;;;2.53;1.40;;;17.50;87.00;;;;;;5024739;28;20586;-77
2021/05/27 09:35:21;;;;;;;3.00;1.65;;;17.40;88.80;;;;;;5009278;28;20192;-77
2021/05/27 09:37:56;;;;;;;3.65;1.58;;;17.60;87.70;;;;;;5002066;28;20180;-77
2021/05/27 09:40:42;;;;;;;1.92;1.05;;;18.10;86.40;;;;;;5020911;28;20200;-75
2021/05/27 09:43:10;;;;;;;2.17;1.30;;;18.90;83.70;;;;;;5007563;28;20331;-74
2021/05/27 09:45:38;;;;;;;2.60;1.10;;;19.20;79.50;;;;;;5021918;28;20191;-74
2021/05/27 09:48:18;;;;;;;1.60;1.20;;;19.30;77.60;;;;;;5026635;28;20207;-74
2021/05/27 09:50:44;;;;;;;3.40;1.20;;;19.10;79.80;;;;;;5023207;28;20191;-74
2021/05/27 09:53:19;;;;;;;2.00;1.13;;;18.80;80.80;;;;;;5022286;28;20242;-77
2021/05/27 09:55:45;;;;;;;2.85;1.50;;;18.00;82.00;;;;;;5023541;28;20180;-76
2021/05/27 09:58:13;;;;;;;1.98;1.30;;;17.60;83.00;;;;;;5023285;28;20196;-77
2021/05/27 10:00:40;;;;;;;2.92;1.25;;;17.20;82.90;;;;;;5022949;28;20295;-77
2021/05/27 10:03:25;;;;;;;2.55;1.10;;;17.30;82.90;;;;;;5026302;28;20181;-74
2021/05/27 10:05:51;;;;;;;1.77;1.13;;;17.40;81.10;;;;;;5026820;28;20169;-77
2021/05/27 10:08:20;;;;;;;1.30;1.20;;;17.40;80.50;;;;;;5025374;28;20195;-76
2021/05/27 10:10:46;;;;;;;2.53;1.58;;;17.20;83.10;;;;;;5009287;28;20192;-74
2021/05/27 10:13:16;;;;;;;1.58;1.33;;;17.20;86.50;;;;;;5016504;28;20184;-74
2021/05/27 10:15:43;;;;;;;1.88;1.50;;;17.10;85.40;;;;;;5026772;28;20615;-75
2021/05/27 10:18:20;;;;;;;1.30;1.20;;;16.90;84.80;;;;;;5007065;28;20283;-75
2021/05/27 10:20:47;;;;;;;1.33;1.20;;;16.70;83.40;;;;;;5022087;28;20578;-75
2021/05/27 10:23:15;;;;;;;4.22;1.52;;;16.30;87.40;;;;;;5026697;28;20192;-75
2021/05/27 10:25:43;;;;;;;1.73;1.40;;;16.00;85.80;;;;;;5011736;28;20188;-75
2021/05/27 10:28:11;;;;;;;1.70;1.30;;;15.70;87.30;;;;;;5028599;28;20172;-75
2021/05/27 10:30:40;;;;;;;3.30;2.20;;;15.70;88.60;;;;;;5023626;28;20185;-75
2021/05/27 10:33:13;;;;;;;7.20;3.70;;;15.60;90.40;;;;;;5025695;28;20181;-75
2021/05/27 10:36:03;;;;;;;3.78;2.20;;;15.70;90.80;;;;;;5022752;28;20212;-75
2021/05/27 10:38:38;;;;;;;4.05;2.10;;;15.80;90.80;;;;;;4999344;28;20262;-74
2021/05/27 10:41:05;;;;;;;1.30;1.20;;;15.80;90.70;;;;;;5018393;28;20238;-76
2021/05/27 10:43:32;;;;;;;2.83;1.35;;;15.70;91.10;;;;;;5024779;28;20689;-74
2021/05/27 10:46:01;;;;;;;2.45;1.80;;;15.70;91.40;;;;;;5010537;28;20189;-76
2021/05/27 10:48:28;;;;;;;4.35;1.45;;;15.80;91.60;;;;;;5023886;28;20207;-75
2021/05/27 10:53:40;;;;;;;1.20;1.02;;;16.10;91.20;;;;;;5025248;28;20263;-75
2021/05/27 10:56:32;;;;;;;2.35;1.20;;;16.20;90.70;;;;;;5029236;28;20271;-75
2021/05/27 10:58:57;;;;;;;2.28;1.48;;;16.30;90.80;;;;;;5018510;28;20222;-74
2021/05/27 11:01:32;;;;;;;2.90;1.73;;;16.30;90.50;;;;;;5027262;28;20204;-75
2021/05/27 11:04:03;;;;;;;2.80;1.55;;;16.30;90.90;;;;;;5025354;28;20578;-74
2021/05/27 11:06:30;;;;;;;4.80;1.90;;;16.30;90.60;;;;;;5028993;28;20184;-75
2021/05/27 11:09:14;;;;;;;2.22;1.70;;;16.30;90.90;;;;;;5028143;28;20184;-76
2021/05/27 11:11:47;;;;;;;2.15;1.40;;;16.20;90.70;;;;;;5024670;28;20204;-75
2021/05/27 11:14:27;;;;;;;1.88;1.55;;;16.20;90.30;;;;;;5021612;28;20187;-74
2021/05/27 11:19:57;;;;;;;4.75;1.50;;;15.80;90.80;;;;;;5027907;28;20295;-76
2021/05/27 11:22:33;;;;;;;4.97;1.50;;;15.70;91.40;;;;;;5028211;28;20311;-74
2021/05/27 11:27:37;;;;;;;1.63;1.30;;;15.80;91.60;;;;;;5026909;28;20295;-74
2021/05/27 11:30:25;;;;;;;1.58;1.30;;;16.00;92.00;;;;;;5012164;28;20670;-75
2021/05/27 11:33:03;;;;;;;1.30;1.20;;;16.20;91.60;;;;;;5008101;28;20581;-73
2021/05/27 11:35:38;;;;;;;2.53;1.48;;;16.50;91.60;;;;;;5023961;28;20238;-70
2021/05/27 11:38:05;;;;;;;2.40;1.20;;;16.90;90.30;;;;;;5022757;28;20238;-70
2021/05/27 11:40:36;;;;;;;1.85;1.02;;;17.30;90.00;;;;;;5028962;28;20215;-70
2021/05/27 11:43:03;;;;;;;3.60;1.30;;;17.80;87.10;;;;;;5024678;28;20250;-70
2021/05/27 11:45:50;;;;;;;2.95;1.30;;;18.20;85.80;;;;;;5022830;28;20181;-71
2021/05/27 11:48:32;;;;;;;1.98;1.30;;;18.60;83.70;;;;;;5007981;28;20188;-70
2021/05/27 11:51:13;;;;;;;3.53;1.40;;;19.20;83.90;;;;;;5026760;28;20874;-71
2021/05/27 11:53:48;;;;;;;1.88;1.02;;;19.70;78.20;;;;;;5024553;28;20180;-71
2021/05/27 11:56:35;;;;;;;2.00;1.05;;;19.90;78.70;;;;;;5026736;28;20192;-70
2021/05/27 11:59:02;;;;;;;2.85;1.33;;;20.00;73.80;;;;;;5009776;28;20212;-72
2021/05/27 12:01:30;;;;;;;1.88;0.95;;;19.90;76.90;;;;;;5031524;28;20197;-70
2021/05/27 12:04:07;;;;;;;4.10;0.90;;;19.60;75.20;;;;;;5013312;28;20180;-71
2021/05/27 12:06:58;;;;;;;2.25;1.10;;;19.50;76.20;;;;;;5024425;28;20188;-70
2021/05/27 12:09:36;;;;;;;3.53;1.00;;;19.30;73.60;;;;;;5019907;28;20782;-71
2021/05/27 12:12:20;;;;;;;2.28;1.30;;;19.10;76.90;;;;;;5028308;28;20208;-70
2021/05/27 12:14:54;;;;;;;2.10;1.17;;;18.40;75.00;;;;;;5009036;28;20250;-71
2021/05/27 12:17:31;;;;;;;1.98;1.15;;;18.10;79.50;;;;;;5007045;28;20192;-69
2021/05/27 12:20:09;;;;;;;6.53;1.33;;;18.00;79.80;;;;;;5004241;28;20230;-71
2021/05/27 12:22:55;;;;;;;5.55;1.13;;;18.10;81.80;;;;;;5020908;28;20223;-70
2021/05/27 12:25:26;;;;;;;2.17;1.40;;;18.30;81.70;;;;;;5026283;28;20681;-71
2021/05/27 12:27:56;;;;;;;3.35;1.10;;;18.50;81.20;;;;;;5022386;28;20194;-69
2021/05/27 12:30:25;;;;;;;2.15;1.20;;;18.70;79.70;;;;;;5022258;28;20261;-69
2021/05/27 12:32:52;;;;;;;3.33;1.00;;;18.70;78.10;;;;;;5022465;28;20663;-71
2021/05/27 12:35:21;;;;;;;3.10;1.23;;;18.70;79.30;;;;;;5021590;28;20196;-71
2021/05/27 12:37:47;;;;;;;1.35;1.00;;;18.80;77.80;;;;;;5021535;28;20207;-69
2021/05/27 12:40:19;;;;;;;1.98;0.93;;;18.90;78.60;;;;;;5003545;28;20212;-69
2021/05/27 12:42:46;;;;;;;2.50;1.40;;;19.00;76.80;;;;;;5023889;28;20211;-70
2021/05/27 12:45:32;;;;;;;2.13;0.98;;;19.20;76.20;;;;;;5019930;28;20203;-69
2021/05/27 12:48:16;;;;;;;1.63;1.00;;;19.40;76.70;;;;;;5022074;28;20176;-69
2021/05/27 12:50:44;;;;;;;1.92;1.20;;;19.70;74.30;;;;;;5021637;28;20188;-71
2021/05/27 12:53:31;;;;;;;2.20;1.13;;;19.80;73.00;;;;;;5022216;28;20226;-70
2021/05/27 12:56:10;;;;;;;3.70;1.00;;;19.60;73.60;;;;;;5024015;28;20322;-71
2021/05/27 12:58:37;;;;;;;1.33;1.00;;;18.80;74.00;;;;;;5023259;28;20193;-70
2021/05/27 13:01:04;;;;;;;1.98;1.20;;;17.90;73.70;;;;;;5022810;28;20200;-70
2021/05/27 13:03:48;;;;;;;1.20;1.10;;;17.60;77.00;;;;;;5004334;28;20204;-71
2021/05/27 13:06:20;;;;;;;1.88;1.20;;;17.40;78.40;;;;;;5020847;28;20655;-72
2021/05/27 13:08:46;;;;;;;2.25;1.08;;;17.40;80.30;;;;;;5024194;28;20615;-71
2021/05/27 13:11:20;;;;;;;2.45;1.15;;;17.60;80.00;;;;;;5025230;28;20196;-73
2021/05/27 13:13:47;;;;;;;4.35;1.70;;;17.70;79.40;;;;;;5022549;28;20179;-71
2021/05/27 13:16:33;;;;;;;4.72;1.50;;;17.80;78.50;;;;;;5007436;28;20231;-71